Decoded Metar for UKHH (KHARKOV in UKRAINE) (IATA:N/A) | Meteo·Mobile Aviation Weather
aviador You're here:

UKHH Decoded Metar

KHARKOV in UKRAINE
Report Time2019-02-16 01:30:00
UTC Time2019-02-16 01:50:32
Flight Rules ifr IFR
Wind310° at 10 kt
W.Decomp.*RWY 25: 6.2 kt HW 7.9 kt RCW
W.Rank310° ranks 11
Current wind is above 310° avg. (7.1)
Visibility9999 m
Phenomena:N/A
Clouds:Overcast 009 Hf
Expected CloudBase > 800 ft AGL from Temp-Dew spread
Ceiling900 ft
Temp01°C (ISA -13)
Dew Point-1°C (87% RH)
AAT-4.7°C
QNH1018 hPa
Density Alt-1,165 ft
Elevation509 ft
Report Wrong Elevation
Raw Report
UKHH 160130Z 31005MPS 9999 OVC009 01/M01 Q1018 R25/29//62
NOSIG=

Extra information for UKHH:More info

Metar Taf Metar & Taf Last 4 Metars F.Rules Stats Wind Profile Meteogram Temp Stats Airport Information Weather charts Add Link Nearby VenuesMetar ALERT Operation Metar Decoded Social comments